KROC/ROC METAR and TAF weather

Enter ICAO airport designator
Station Type Date Time Source
KROC METAR 2019/08/24 21:54 UTC NOAA

KROC 242154Z 03009KT 10SM BKN044 OVC060 20/11 A3028 RMK AO2 SLP255 T02000106


Station Type Date Time Source
KROC Decoded METAR 2019/08/24 21:54 UTC NOAA

Station name not available
Aug 24, 2019 - 05:54 PM EDT / 2019.08.24 2154 UTC
Wind: from the NNE (030 degrees) at 10 MPH (9 KT):0
Visibility: 10 mile(s):0
Sky conditions: overcast
Temperature: 68.0 F (20.0 C)
Dew Point: 51.1 F (10.6 C)
Relative Humidity: 54%
Pressure (altimeter): 30.28 in. Hg (1025 hPa)
ob: KROC 242154Z 03009KT 10SM BKN044 OVC060 20/11 A3028 RMK AO2 SLP255 T02000106
cycle: 22

Station Type Date Time Source
KROC TAF 2019/08/24 21:52 UTC NOAA

TAF
AMD KROC 242050Z 2421/2518 03006KT P6SM SCT035
TEMPO 2421/2424 BKN035
FM250300 VRB03KT P6SM SCT025
TEMPO 2503/2507 BKN025

Example: see airport list